Terminal Aerodrome Forecast
Issued by NWS

Home | Current Version | Previous Version | Text Only | Print | Product List | Glossary On
Versions: 1 2 3 4 5 6 7 8 9 10 11 12 13 14 15
059
FTUS42 KTBW 232341
TAFRSW
TAF
KRSW 232341Z 2400/2424 09009KT P6SM SCT050
     FM240200 09004KT P6SM FEW050
     FM240900 VRB04KT 5SM BR SKC
     FM241300 11008KT P6SM SCT025
     FM241900 14009KT P6SM SCT050=

USA.gov is the U.S. government's official web portal to all federal, state and local government web resources and services.